This is the latest recevied weather packets stored in our database for station/object 9M4RBN-3. If no packets are shown the sender has not sent any weather packets the latest 10 day(s).
| Time | Temp. | Humidity | Pressure | Rain* | Wind** | Luminosity | Snow |
|---|---|---|---|---|---|---|---|
| 1787396633 | 26.67° C | 43% | 1015.3 hPa | - | - | - | - |
| 1787395733 | 26.67° C | 44% | 1015.4 hPa | - | - | - | - |
| 1787394833 | 26.67° C | 43% | 1015.2 hPa | - | - | - | - |
| 1787393933 | 26.67° C | 46% | 1015.2 hPa | - | - | - | - |
| 1787393065 | 26.67° C | 47% | 1015.1 hPa | - | - | - | - |
| 1787393033 | 26.67° C | 47% | 1015.1 hPa | - | - | - | - |
| 1787392133 | 26.67° C | 52% | 1015.1 hPa | - | - | - | - |
| 1787391233 | 26.11° C | 49% | 1015.1 hPa | - | - | - | - |
| 1787390333 | 26.67° C | 39% | 1015 hPa | - | - | - | - |
| 1787389433 | 27.22° C | 42% | 1015.2 hPa | - | - | - | - |
| 1787388533 | 28.33° C | 54% | 1015.1 hPa | - | - | - | - |
| 1787387633 | 26.67° C | 47% | 1015.2 hPa | - | - | - | - |
| 1787386733 | 26.67° C | 48% | 1015.1 hPa | - | - | - | - |
| 1787385833 | 26.67° C | 48% | 1015.2 hPa | - | - | - | - |
| 1787384933 | 26.67° C | 49% | 1015.3 hPa | - | - | - | - |
| 1787384033 | 26.67° C | 50% | 1015.6 hPa | - | - | - | - |
| 1787383133 | 26.11° C | 49% | 1015.9 hPa | - | - | - | - |
| 1787382233 | 26.11° C | 49% | 1016 hPa | - | - | - | - |
| 1787381332 | 26.11° C | 49% | 1016.2 hPa | - | - | - | - |
| 1787380432 | 26.11° C | 50% | 1016.3 hPa | - | - | - | - |
| 1787379532 | 26.11° C | 50% | 1016.5 hPa | - | - | - | - |
| 1787378632 | 26.11° C | 51% | 1016.7 hPa | - | - | - | - |
| 1787377732 | 26.11° C | 51% | 1017 hPa | - | - | - | - |
| 1787376832 | 26.11° C | 51% | 1017.3 hPa | - | - | - | - |
| 1787375932 | 26.11° C | 51% | 1017.4 hPa | - | - | - | - |
* Rain since midnight (hover to see other rain measurements)
** Current wind speed in m/s (hover to see current wind gust speed)